Avoca, Illinois
Current Conditions -  °F | °C
As of 10:35 PM on Wednesday 22 Oct 2014 (Local Time) from KPNT Reporting Station
Clear Clear  
Wind Chill: 39°   Ceiling: Unl
Heat Index: 39°   Visibility: 10mi
Dew Point: 34°   Wind: 3mph
Humidity: 84%   Direction: 120°ESE
Pressure: 30.28"   Gusts: NA
Location:  40.7318°N, 88.524°W
Report Text: KPNT 230335Z AUTO 12003KT 10SM CLR 04/01 A3028 RMK AO2 T00370013
Loading
Personal Weather Stations






























Interactive Weather Map New forecast layout! Learn more

10-Day Weather Forecast

Advertisements
Track Severe Weather on mobile